Multratug 19 — PCHZ — position and weather

sailwx.info

Track history (hours):
 
Tides and Currents Weather Stations Pressure Air Temp Water Temp Dewpoint Dewpoint Depression Visibility Wind Speed Wind Dir Waves Ship Positions

Multratug 19

Last reported at 2014-Jul-30 18:33 UTC. Time now 2014-Jul-30 19:16 UTC.
Position N 51°27' E 003°42'.

Length 32 m; draft 5.6 m.

Type: Tug. MMSI: 245875000.

Date/timePositionNaut miles runAvg speedWind from/ knotsBaromVisibWave heightAir tempDewpointWater temp
2014-Jul-30 18:33N 51°27' E 003°42'1 0.6
2014-Jul-30 17:33N 51°27' E 003°42'1 1.2
2014-Jul-30 16:33N 51°27' E 003°41'2 2.2
2014-Jul-30 15:33N 51°26' E 003°38'2 2.5
2014-Jul-30 14:33N 51°28' E 003°40'0 0.0
2014-Jul-30 13:33N 51°28' E 003°40'0 0.0
2014-Jul-30 12:33N 51°28' E 003°40'0 0.0
2014-Jul-30 11:33N 51°28' E 003°40'0 0.0
2014-Jul-30 10:33N 51°28' E 003°40'0 0.0
2014-Jul-30 09:33N 51°28' E 003°40'0 0.0
2014-Jul-30 08:33N 51°28' E 003°40'0 0.0
2014-Jul-30 07:33N 51°28' E 003°40'0 0.0
2014-Jul-30 06:34N 51°28' E 003°40'0 0.0
2014-Jul-30 05:33N 51°28' E 003°40'0 0.0
2014-Jul-30 04:33N 51°28' E 003°40'0 0.0
2014-Jul-30 03:33N 51°28' E 003°40'0 0.0
2014-Jul-30 02:33N 51°28' E 003°40'1 0.6
2014-Jul-30 01:33N 51°27' E 003°41'1 0.6
2014-Jul-30 00:33N 51°28' E 003°40'0 0.0
2014-Jul-29 23:33N 51°28' E 003°40'0 0.0
2014-Jul-29 22:34N 51°28' E 003°40'0 0.0
2014-Jul-29 21:33N 51°28' E 003°40'0 0.0
2014-Jul-29 20:33N 51°28' E 003°40'0 0.0
2014-Jul-29 19:33N 51°28' E 003°40'0 0.0
2014-Jul-29 18:33N 51°28' E 003°40'0 0.0
2014-Jul-29 17:34N 51°28' E 003°40'0 0.0
2014-Jul-29 16:33N 51°28' E 003°40'0 0.0
2014-Jul-29 15:33N 51°28' E 003°40'0 0.0
2014-Jul-29 14:33N 51°28' E 003°40'0 0.0
2014-Jul-29 13:34N 51°28' E 003°40'0 0.0
2014-Jul-29 12:33N 51°28' E 003°40'0 0.0
2014-Jul-29 11:34N 51°28' E 003°40'2 1.5
2014-Jul-29 10:33N 51°29' E 003°42'2 1.5
2014-Jul-29 09:33N 51°28' E 003°40'0 0.0
2014-Jul-29 08:33N 51°28' E 003°40'0 0.0
2014-Jul-29 07:34N 51°28' E 003°40'0 0.0
2014-Jul-29 06:33N 51°28' E 003°40'0 0.0
2014-Jul-29 05:33N 51°28' E 003°40'0 0.0
2014-Jul-29 04:33N 51°28' E 003°40'0 0.0
2014-Jul-29 03:34N 51°28' E 003°40'0 0.0
2014-Jul-29 02:33N 51°28' E 003°40'0 0.0
2014-Jul-29 01:33N 51°28' E 003°40'0 0.0
2014-Jul-29 00:34N 51°28' E 003°40'0 0.0
2014-Jul-28 23:33N 51°28' E 003°40'0 0.0
2014-Jul-28 22:33N 51°28' E 003°40'0 0.0
2014-Jul-28 21:33N 51°28' E 003°40'0 0.0
2014-Jul-28 20:33N 51°28' E 003°40'0 0.0
2014-Jul-28 19:33N 51°28' E 003°40'0 0.0
2014-Jul-28 18:34N 51°28' E 003°40'0 0.2
2014-Jul-28 17:34N 51°27' E 003°41'0 0.0
2014-Jul-28 16:33N 51°27' E 003°41'0 0.0
2014-Jul-28 15:33N 51°27' E 003°41'1 1.0
2014-Jul-28 14:34N 51°28' E 003°42'1 1.0
2014-Jul-28 13:33N 51°28' E 003°40'0 0.2
2014-Jul-28 12:33N 51°28' E 003°41'1 0.9
2014-Jul-28 11:33N 51°27' E 003°40'1 1.0
2014-Jul-28 10:33N 51°28' E 003°40'0 0.0
2014-Jul-28 09:34N 51°28' E 003°40'0 0.0
2014-Jul-28 08:33N 51°28' E 003°40'4 3.7
2014-Jul-28 07:33N 51°26' E 003°35'4 3.7
2014-Jul-28 06:34N 51°28' E 003°40'0 0.0
2014-Jul-28 05:34N 51°28' E 003°40'0 0.0
2014-Jul-28 04:34N 51°28' E 003°40'0 0.0
2014-Jul-28 03:33N 51°28' E 003°40'2 1.5
2014-Jul-28 02:33N 51°29' E 003°42'2 1.7
2014-Jul-28 01:34N 51°27' E 003°41'0 0.3
2014-Jul-28 00:33N 51°28' E 003°40'2 1.6
2014-Jul-27 23:34N 51°26' E 003°41'2 1.6
2014-Jul-27 22:33N 51°28' E 003°40'0 0.0
2014-Jul-27 21:33N 51°28' E 003°40'4 3.6
2014-Jul-27 20:34N 51°25' E 003°44'0 0.0
2014-Jul-27 19:33N 51°25' E 003°44'3 2.9
2014-Jul-27 18:34N 51°26' E 003°40'1 1.4
2014-Jul-27 17:34N 51°28' E 003°40'0 0.0
2014-Jul-27 16:33N 51°28' E 003°40'0 0.0
2014-Jul-27 15:33N 51°28' E 003°40'0 0.0
2014-Jul-27 14:33N 51°28' E 003°40'0 0.0
2014-Jul-27 13:34N 51°28' E 003°40'0 0.0
2014-Jul-27 12:33N 51°28' E 003°40'0 0.0
2014-Jul-27 11:33N 51°28' E 003°40'0 0.0
2014-Jul-27 10:34N 51°28' E 003°40'0 0.0
2014-Jul-27 09:34N 51°28' E 003°40'0 0.0
2014-Jul-27 08:34N 51°28' E 003°40'0 0.0
2014-Jul-27 07:34N 51°28' E 003°40'0 0.0
2014-Jul-27 06:34N 51°28' E 003°40'0 0.0
2014-Jul-27 05:33N 51°28' E 003°40'0 0.0
2014-Jul-27 04:33N 51°28' E 003°40'0 0.0
2014-Jul-27 03:33N 51°28' E 003°40'0 0.0
2014-Jul-27 02:33N 51°28' E 003°40'0 0.0
2014-Jul-27 01:33N 51°28' E 003°40'0 0.0
2014-Jul-27 00:34N 51°28' E 003°40'0 0.0
2014-Jul-26 23:33N 51°28' E 003°40'0 0.0
2014-Jul-26 22:34N 51°28' E 003°40'0 0.0
2014-Jul-26 21:34N 51°28' E 003°40'0 0.0
2014-Jul-26 20:34N 51°28' E 003°40'0 0.0
2014-Jul-26 19:33N 51°28' E 003°40'0 0.0
2014-Jul-26 18:34N 51°28' E 003°40'0 0.0
2014-Jul-26 17:34N 51°28' E 003°40'0 0.0
2014-Jul-26 16:33N 51°28' E 003°40'0 0.0
2014-Jul-26 15:33N 51°28' E 003°40'0 0.0
2014-Jul-26 14:33N 51°28' E 003°40'0 0.0
2014-Jul-26 13:33N 51°28' E 003°40'0 0.5
2014-Jul-26 12:34N 51°27' E 003°40'0 0.4
2014-Jul-26 11:30N 51°28' E 003°40'0 0.3
2014-Jul-26 10:33N 51°27' E 003°41'0 0.1
2014-Jul-26 09:33N 51°27' E 003°41'0 0.1
2014-Jul-26 08:33N 51°27' E 003°41'0 0.1
2014-Jul-26 07:33N 51°27' E 003°40'0 0.0
2014-Jul-26 06:33N 51°27' E 003°40'0 0.0
2014-Jul-26 05:33N 51°27' E 003°40'0 0.0
2014-Jul-26 04:34N 51°27' E 003°40'0 0.1
2014-Jul-26 03:33N 51°27' E 003°41'0 0.0
2014-Jul-26 02:33N 51°27' E 003°40'0 0.0
2014-Jul-26 01:33N 51°27' E 003°41'0 0.0
2014-Jul-26 00:33N 51°27' E 003°40'0 0.1
2014-Jul-25 23:33N 51°28' E 003°40'0 0.1
2014-Jul-25 22:33N 51°27' E 003°40'0 0.0
2014-Jul-25 21:33N 51°27' E 003°40'0 0.1
2014-Jul-25 20:33N 51°27' E 003°40'0 0.0
2014-Jul-25 19:33N 51°27' E 003°41'0 0.1
2014-Jul-25 18:33N 51°27' E 003°40'0 0.1
2014-Jul-25 17:33N 51°27' E 003°40'0 0.1
2014-Jul-25 16:34N 51°27' E 003°41'0 0.1
2014-Jul-25 15:34N 51°27' E 003°40'0 0.1
2014-Jul-25 14:34N 51°27' E 003°40'0 0.0
2014-Jul-25 13:33N 51°27' E 003°40'0 0.0
2014-Jul-25 12:33N 51°27' E 003°40'0 0.0
2014-Jul-25 11:33N 51°27' E 003°40'0 0.0
2014-Jul-25 10:33N 51°27' E 003°40'0 0.0
2014-Jul-25 09:33N 51°27' E 003°40'0 0.1
2014-Jul-25 08:34N 51°27' E 003°40'0 0.1
2014-Jul-25 07:33N 51°27' E 003°40'0 0.1
2014-Jul-25 06:33N 51°27' E 003°40'0 0.0
2014-Jul-25 05:33N 51°27' E 003°40'0 0.1
2014-Jul-25 04:33N 51°27' E 003°40'0 0.0
2014-Jul-25 03:33N 51°27' E 003°40'0 0.1
2014-Jul-25 02:33N 51°27' E 003°40'0 0.1
2014-Jul-25 01:33N 51°27' E 003°41'0 0.0
2014-Jul-25 00:33N 51°27' E 003°41'0 0.1
2014-Jul-24 23:34N 51°27' E 003°40'0 0.0
2014-Jul-24 22:34N 51°27' E 003°40'0 0.0
2014-Jul-24 21:34N 51°27' E 003°40'0 0.0
2014-Jul-24 20:33N 51°27' E 003°40'0 0.0
2014-Jul-24 19:34N 51°27' E 003°41'0 0.0
2014-Jul-24 18:34N 51°27' E 003°41'0 0.1
2014-Jul-24 17:33N 51°27' E 003°40'0 0.1
2014-Jul-24 16:34N 51°27' E 003°40'0 0.0
2014-Jul-24 15:33N 51°27' E 003°40'0 0.0
2014-Jul-24 14:34N 51°27' E 003°40'0 0.1
2014-Jul-24 13:33N 51°27' E 003°40'0 0.0
2014-Jul-24 12:33N 51°27' E 003°40'0 0.0
2014-Jul-24 11:33N 51°27' E 003°40'0 0.0
2014-Jul-24 10:33N 51°27' E 003°41'0 0.0
2014-Jul-24 09:34N 51°27' E 003°40'0 0.0
2014-Jul-24 08:33N 51°27' E 003°40'0 0.0
2014-Jul-24 07:34N 51°27' E 003°40'0 0.0
2014-Jul-24 06:34N 51°27' E 003°40'0 0.0
2014-Jul-24 05:33N 51°27' E 003°40'0 0.0
2014-Jul-24 04:33N 51°27' E 003°40'0 0.1
2014-Jul-24 03:34N 51°27' E 003°41'0 0.1
2014-Jul-24 02:33N 51°27' E 003°40'0 0.0
2014-Jul-24 01:33N 51°27' E 003°40'0 0.0
2014-Jul-24 00:33N 51°27' E 003°40'0 0.0
2014-Jul-23 23:33N 51°27' E 003°40'0 0.0
2014-Jul-23 22:33N 51°27' E 003°40'0 0.0
2014-Jul-23 21:33N 51°27' E 003°40'0 0.0
2014-Jul-23 20:33N 51°27' E 003°40'0 0.0
2014-Jul-23 19:33N 51°27' E 003°40'0 0.0
2014-Jul-23 18:33N 51°27' E 003°40'0 0.0
2014-Jul-23 17:33N 51°27' E 003°40'0 0.0
2014-Jul-23 16:33N 51°27' E 003°40'0 0.0
2014-Jul-23 15:33N 51°27' E 003°40'0 0.0
2014-Jul-23 14:34N 51°27' E 003°40'0 0.0
2014-Jul-23 13:33N 51°27' E 003°40'0 0.0
2014-Jul-23 12:34N 51°27' E 003°40'0 0.0
2014-Jul-23 11:34N 51°27' E 003°40'0 0.1
2014-Jul-23 10:33N 51°27' E 003°41'0 0.0
2014-Jul-23 09:33N 51°27' E 003°40'0 0.0
2014-Jul-23 08:33N 51°27' E 003°40'0 0.1
2014-Jul-23 07:33N 51°27' E 003°40'0 0.1
2014-Jul-23 06:33N 51°27' E 003°41'0 0.0
2014-Jul-23 05:34N 51°27' E 003°40'0 0.0
2014-Jul-23 04:34N 51°27' E 003°41'0 0.1
2014-Jul-23 03:34N 51°27' E 003°40'0 0.0
2014-Jul-23 02:34N 51°27' E 003°41'0 0.0
2014-Jul-23 01:33N 51°27' E 003°40'0 0.0
2014-Jul-23 00:33N 51°27' E 003°40'0 0.0
2014-Jul-22 23:34N 51°27' E 003°40'0 0.0
2014-Jul-22 22:33N 51°27' E 003°40'0 0.0
2014-Jul-22 21:33N 51°27' E 003°40'0 0.0
2014-Jul-22 20:34N 51°27' E 003°40'0 0.1
2014-Jul-22 19:34N 51°27' E 003°41'0 0.1
2014-Jul-22 18:34N 51°27' E 003°41'0 0.0
2014-Jul-22 17:34N 51°27' E 003°40'0 0.0
2014-Jul-22 16:33N 51°27' E 003°40'0 0.0
2014-Jul-22 15:33N 51°27' E 003°40'0 0.0
2014-Jul-22 14:33N 51°27' E 003°40'0 0.0
2014-Jul-22 13:33N 51°27' E 003°40'0 0.0
2014-Jul-22 12:34N 51°27' E 003°40'0 0.0
2014-Jul-22 11:33N 51°27' E 003°40'0 0.1
2014-Jul-22 10:34N 51°27' E 003°40'0 0.1
2014-Jul-22 09:34N 51°27' E 003°40'0 0.1
2014-Jul-22 08:33N 51°27' E 003°40'0 0.1
2014-Jul-22 07:34N 51°27' E 003°40'0 0.1
2014-Jul-22 06:34N 51°27' E 003°40'0 0.1
2014-Jul-22 05:33N 51°28' E 003°40'0 0.1
2014-Jul-22 04:34N 51°28' E 003°40'0 0.1
2014-Jul-22 03:34N 51°27' E 003°40'0 0.0
2014-Jul-22 02:34N 51°27' E 003°40'0 0.0
2014-Jul-22 01:33N 51°27' E 003°40'0 0.0
2014-Jul-22 00:34N 51°27' E 003°40'0 0.1
2014-Jul-21 23:33N 51°27' E 003°41'0 0.1
2014-Jul-21 22:33N 51°27' E 003°41'0 0.0
2014-Jul-21 21:34N 51°27' E 003°40'0 0.1
2014-Jul-21 20:34N 51°27' E 003°40'0 0.2
2014-Jul-21 20:18N 51°27' E 003°41'0 0.1
2014-Jul-21 19:33N 51°27' E 003°41'0 0.1
2014-Jul-21 18:33N 51°27' E 003°40'0 0.0
2014-Jul-21 17:33N 51°28' E 003°40'0 0.0
2014-Jul-21 16:33N 51°28' E 003°40'0 0.1
2014-Jul-21 15:33N 51°27' E 003°40'0 0.0
2014-Jul-21 14:34N 51°27' E 003°40'0 0.1
2014-Jul-21 13:34N 51°27' E 003°40'0 0.0
2014-Jul-21 12:34N 51°27' E 003°40'0 0.0
2014-Jul-21 11:33N 51°27' E 003°40'0 0.0
2014-Jul-21 10:33N 51°27' E 003°40'0 0.0
2014-Jul-21 09:33N 51°27' E 003°40'0 0.1
2014-Jul-21 08:33N 51°27' E 003°41'0 0.1
2014-Jul-21 07:33N 51°27' E 003°40'0 0.1
2014-Jul-21 06:33N 51°27' E 003°40'0 0.3
2014-Jul-21 05:34N 51°28' E 003°40'0 0.0
2014-Jul-21 04:33N 51°28' E 003°40'1 1.5
2014-Jul-21 03:33N 51°29' E 003°42'1 1.4
2014-Jul-21 02:34N 51°27' E 003°42'1 0.8
2014-Jul-21 01:34N 51°27' E 003°43'0 0.0
2014-Jul-21 00:33N 51°27' E 003°43'0 0.0
2014-Jul-20 23:33N 51°27' E 003°43'0 0.0
2014-Jul-20 22:33N 51°27' E 003°43'0 0.0
2014-Jul-20 21:33N 51°27' E 003°43'0 0.0
2014-Jul-20 20:33N 51°27' E 003°43'0 0.0
2014-Jul-20 19:34N 51°27' E 003°43'0 0.0
2014-Jul-20 18:33N 51°27' E 003°43'  
Track history (hours):
 
Tides and Currents Weather Stations Pressure Air Temp Water Temp Dewpoint Dewpoint Depression Visibility Wind Speed Wind Dir Waves Ship Positions

Multratug 19

Last reported at 2014-Jul-30 18:33 UTC. Time now 2014-Jul-30 19:16 UTC.
Position N 51°27' E 003°42'.

Length 32 m; draft 5.6 m.

Type: Tug. MMSI: 245875000.

Date/timePositionNaut miles runAvg speedWind from/ knotsBaromVisibWave heightAir tempDewpointWater temp
2014-Jul-30 18:33N 51°27' E 003°42'1 0.6
2014-Jul-30 17:33N 51°27' E 003°42'1 1.2
2014-Jul-30 16:33N 51°27' E 003°41'2 2.2
2014-Jul-30 15:33N 51°26' E 003°38'2 2.5
2014-Jul-30 14:33N 51°28' E 003°40'0 0.0
2014-Jul-30 13:33N 51°28' E 003°40'0 0.0
2014-Jul-30 12:33N 51°28' E 003°40'0 0.0
2014-Jul-30 11:33N 51°28' E 003°40'0 0.0
2014-Jul-30 10:33N 51°28' E 003°40'0 0.0
2014-Jul-30 09:33N 51°28' E 003°40'0 0.0
2014-Jul-30 08:33N 51°28' E 003°40'0 0.0
2014-Jul-30 07:33N 51°28' E 003°40'0 0.0
2014-Jul-30 06:34N 51°28' E 003°40'0 0.0
2014-Jul-30 05:33N 51°28' E 003°40'0 0.0
2014-Jul-30 04:33N 51°28' E 003°40'0 0.0
2014-Jul-30 03:33N 51°28' E 003°40'0 0.0
2014-Jul-30 02:33N 51°28' E 003°40'1 0.6
2014-Jul-30 01:33N 51°27' E 003°41'1 0.6
2014-Jul-30 00:33N 51°28' E 003°40'0 0.0
2014-Jul-29 23:33N 51°28' E 003°40'0 0.0
2014-Jul-29 22:34N 51°28' E 003°40'0 0.0
2014-Jul-29 21:33N 51°28' E 003°40'0 0.0
2014-Jul-29 20:33N 51°28' E 003°40'0 0.0
2014-Jul-29 19:33N 51°28' E 003°40'0 0.0
2014-Jul-29 18:33N 51°28' E 003°40'0 0.0
2014-Jul-29 17:34N 51°28' E 003°40'0 0.0
2014-Jul-29 16:33N 51°28' E 003°40'0 0.0
2014-Jul-29 15:33N 51°28' E 003°40'0 0.0
2014-Jul-29 14:33N 51°28' E 003°40'0 0.0
2014-Jul-29 13:34N 51°28' E 003°40'0 0.0
2014-Jul-29 12:33N 51°28' E 003°40'0 0.0
2014-Jul-29 11:34N 51°28' E 003°40'2 1.5
2014-Jul-29 10:33N 51°29' E 003°42'2 1.5
2014-Jul-29 09:33N 51°28' E 003°40'0 0.0
2014-Jul-29 08:33N 51°28' E 003°40'0 0.0
2014-Jul-29 07:34N 51°28' E 003°40'0 0.0
2014-Jul-29 06:33N 51°28' E 003°40'0 0.0
2014-Jul-29 05:33N 51°28' E 003°40'0 0.0
2014-Jul-29 04:33N 51°28' E 003°40'0 0.0
2014-Jul-29 03:34N 51°28' E 003°40'0 0.0
2014-Jul-29 02:33N 51°28' E 003°40'0 0.0
2014-Jul-29 01:33N 51°28' E 003°40'0 0.0
2014-Jul-29 00:34N 51°28' E 003°40'0 0.0
2014-Jul-28 23:33N 51°28' E 003°40'0 0.0
2014-Jul-28 22:33N 51°28' E 003°40'0 0.0
2014-Jul-28 21:33N 51°28' E 003°40'0 0.0
2014-Jul-28 20:33N 51°28' E 003°40'0 0.0
2014-Jul-28 19:33N 51°28' E 003°40'0 0.0
2014-Jul-28 18:34N 51°28' E 003°40'0 0.2
2014-Jul-28 17:34N 51°27' E 003°41'0 0.0
2014-Jul-28 16:33N 51°27' E 003°41'0 0.0
2014-Jul-28 15:33N 51°27' E 003°41'1 1.0
2014-Jul-28 14:34N 51°28' E 003°42'1 1.0
2014-Jul-28 13:33N 51°28' E 003°40'0 0.2
2014-Jul-28 12:33N 51°28' E 003°41'1 0.9
2014-Jul-28 11:33N 51°27' E 003°40'1 1.0
2014-Jul-28 10:33N 51°28' E 003°40'0 0.0
2014-Jul-28 09:34N 51°28' E 003°40'0 0.0
2014-Jul-28 08:33N 51°28' E 003°40'4 3.7
2014-Jul-28 07:33N 51°26' E 003°35'4 3.7
2014-Jul-28 06:34N 51°28' E 003°40'0 0.0
2014-Jul-28 05:34N 51°28' E 003°40'0 0.0
2014-Jul-28 04:34N 51°28' E 003°40'0 0.0
2014-Jul-28 03:33N 51°28' E 003°40'2 1.5
2014-Jul-28 02:33N 51°29' E 003°42'2 1.7
2014-Jul-28 01:34N 51°27' E 003°41'0 0.3
2014-Jul-28 00:33N 51°28' E 003°40'2 1.6
2014-Jul-27 23:34N 51°26' E 003°41'2 1.6
2014-Jul-27 22:33N 51°28' E 003°40'0 0.0
2014-Jul-27 21:33N 51°28' E 003°40'4 3.6
2014-Jul-27 20:34N 51°25' E 003°44'0 0.0
2014-Jul-27 19:33N 51°25' E 003°44'3 2.9
2014-Jul-27 18:34N 51°26' E 003°40'1 1.4
2014-Jul-27 17:34N 51°28' E 003°40'0 0.0
2014-Jul-27 16:33N 51°28' E 003°40'0 0.0
2014-Jul-27 15:33N 51°28' E 003°40'0 0.0
2014-Jul-27 14:33N 51°28' E 003°40'0 0.0
2014-Jul-27 13:34N 51°28' E 003°40'0 0.0
2014-Jul-27 12:33N 51°28' E 003°40'0 0.0
2014-Jul-27 11:33N 51°28' E 003°40'0 0.0
2014-Jul-27 10:34N 51°28' E 003°40'0 0.0
2014-Jul-27 09:34N 51°28' E 003°40'0 0.0
2014-Jul-27 08:34N 51°28' E 003°40'0 0.0
2014-Jul-27 07:34N 51°28' E 003°40'0 0.0
2014-Jul-27 06:34N 51°28' E 003°40'0 0.0
2014-Jul-27 05:33N 51°28' E 003°40'0 0.0
2014-Jul-27 04:33N 51°28' E 003°40'0 0.0
2014-Jul-27 03:33N 51°28' E 003°40'0 0.0
2014-Jul-27 02:33N 51°28' E 003°40'0 0.0
2014-Jul-27 01:33N 51°28' E 003°40'0 0.0
2014-Jul-27 00:34N 51°28' E 003°40'0 0.0
2014-Jul-26 23:33N 51°28' E 003°40'0 0.0
2014-Jul-26 22:34N 51°28' E 003°40'0 0.0
2014-Jul-26 21:34N 51°28' E 003°40'0 0.0
2014-Jul-26 20:34N 51°28' E 003°40'0 0.0
2014-Jul-26 19:33N 51°28' E 003°40'0 0.0
2014-Jul-26 18:34N 51°28' E 003°40'0 0.0
2014-Jul-26 17:34N 51°28' E 003°40'0 0.0
2014-Jul-26 16:33N 51°28' E 003°40'0 0.0
2014-Jul-26 15:33N 51°28' E 003°40'0 0.0
2014-Jul-26 14:33N 51°28' E 003°40'0 0.0
2014-Jul-26 13:33N 51°28' E 003°40'0 0.5
2014-Jul-26 12:34N 51°27' E 003°40'0 0.4
2014-Jul-26 11:30N 51°28' E 003°40'0 0.3
2014-Jul-26 10:33N 51°27' E 003°41'0 0.1
2014-Jul-26 09:33N 51°27' E 003°41'0 0.1
2014-Jul-26 08:33N 51°27' E 003°41'0 0.1
2014-Jul-26 07:33N 51°27' E 003°40'0 0.0
2014-Jul-26 06:33N 51°27' E 003°40'0 0.0
2014-Jul-26 05:33N 51°27' E 003°40'0 0.0
2014-Jul-26 04:34N 51°27' E 003°40'0 0.1
2014-Jul-26 03:33N 51°27' E 003°41'0 0.0
2014-Jul-26 02:33N 51°27' E 003°40'0 0.0
2014-Jul-26 01:33N 51°27' E 003°41'0 0.0
2014-Jul-26 00:33N 51°27' E 003°40'0 0.1
2014-Jul-25 23:33N 51°28' E 003°40'0 0.1
2014-Jul-25 22:33N 51°27' E 003°40'0 0.0
2014-Jul-25 21:33N 51°27' E 003°40'0 0.1
2014-Jul-25 20:33N 51°27' E 003°40'0 0.0
2014-Jul-25 19:33N 51°27' E 003°41'0 0.1
2014-Jul-25 18:33N 51°27' E 003°40'0 0.1
2014-Jul-25 17:33N 51°27' E 003°40'0 0.1
2014-Jul-25 16:34N 51°27' E 003°41'0 0.1
2014-Jul-25 15:34N 51°27' E 003°40'0 0.1
2014-Jul-25 14:34N 51°27' E 003°40'0 0.0
2014-Jul-25 13:33N 51°27' E 003°40'0 0.0
2014-Jul-25 12:33N 51°27' E 003°40'0 0.0
2014-Jul-25 11:33N 51°27' E 003°40'0 0.0
2014-Jul-25 10:33N 51°27' E 003°40'0 0.0
2014-Jul-25 09:33N 51°27' E 003°40'0 0.1
2014-Jul-25 08:34N 51°27' E 003°40'0 0.1
2014-Jul-25 07:33N 51°27' E 003°40'0 0.1
2014-Jul-25 06:33N 51°27' E 003°40'0 0.0
2014-Jul-25 05:33N 51°27' E 003°40'0 0.1
2014-Jul-25 04:33N 51°27' E 003°40'0 0.0
2014-Jul-25 03:33N 51°27' E 003°40'0 0.1
2014-Jul-25 02:33N 51°27' E 003°40'0 0.1
2014-Jul-25 01:33N 51°27' E 003°41'0 0.0
2014-Jul-25 00:33N 51°27' E 003°41'0 0.1
2014-Jul-24 23:34N 51°27' E 003°40'0 0.0
2014-Jul-24 22:34N 51°27' E 003°40'0 0.0
2014-Jul-24 21:34N 51°27' E 003°40'0 0.0
2014-Jul-24 20:33N 51°27' E 003°40'0 0.0
2014-Jul-24 19:34N 51°27' E 003°41'0 0.0
2014-Jul-24 18:34N 51°27' E 003°41'0 0.1
2014-Jul-24 17:33N 51°27' E 003°40'0 0.1
2014-Jul-24 16:34N 51°27' E 003°40'0 0.0
2014-Jul-24 15:33N 51°27' E 003°40'0 0.0
2014-Jul-24 14:34N 51°27' E 003°40'0 0.1
2014-Jul-24 13:33N 51°27' E 003°40'0 0.0
2014-Jul-24 12:33N 51°27' E 003°40'0 0.0
2014-Jul-24 11:33N 51°27' E 003°40'0 0.0
2014-Jul-24 10:33N 51°27' E 003°41'0 0.0
2014-Jul-24 09:34N 51°27' E 003°40'0 0.0
2014-Jul-24 08:33N 51°27' E 003°40'0 0.0
2014-Jul-24 07:34N 51°27' E 003°40'0 0.0
2014-Jul-24 06:34N 51°27' E 003°40'0 0.0
2014-Jul-24 05:33N 51°27' E 003°40'0 0.0
2014-Jul-24 04:33N 51°27' E 003°40'0 0.1
2014-Jul-24 03:34N 51°27' E 003°41'0 0.1
2014-Jul-24 02:33N 51°27' E 003°40'0 0.0
2014-Jul-24 01:33N 51°27' E 003°40'0 0.0
2014-Jul-24 00:33N 51°27' E 003°40'0 0.0
2014-Jul-23 23:33N 51°27' E 003°40'0 0.0
2014-Jul-23 22:33N 51°27' E 003°40'0 0.0
2014-Jul-23 21:33N 51°27' E 003°40'0 0.0
2014-Jul-23 20:33N 51°27' E 003°40'0 0.0
2014-Jul-23 19:33N 51°27' E 003°40'0 0.0
2014-Jul-23 18:33N 51°27' E 003°40'0 0.0
2014-Jul-23 17:33N 51°27' E 003°40'0 0.0
2014-Jul-23 16:33N 51°27' E 003°40'0 0.0
2014-Jul-23 15:33N 51°27' E 003°40'0 0.0
2014-Jul-23 14:34N 51°27' E 003°40'0 0.0
2014-Jul-23 13:33N 51°27' E 003°40'0 0.0
2014-Jul-23 12:34N 51°27' E 003°40'0 0.0
2014-Jul-23 11:34N 51°27' E 003°40'0 0.1
2014-Jul-23 10:33N 51°27' E 003°41'0 0.0
2014-Jul-23 09:33N 51°27' E 003°40'0 0.0
2014-Jul-23 08:33N 51°27' E 003°40'0 0.1
2014-Jul-23 07:33N 51°27' E 003°40'0 0.1
2014-Jul-23 06:33N 51°27' E 003°41'0 0.0
2014-Jul-23 05:34N 51°27' E 003°40'0 0.0
2014-Jul-23 04:34N 51°27' E 003°41'0 0.1
2014-Jul-23 03:34N 51°27' E 003°40'0 0.0
2014-Jul-23 02:34N 51°27' E 003°41'0 0.0
2014-Jul-23 01:33N 51°27' E 003°40'0 0.0
2014-Jul-23 00:33N 51°27' E 003°40'0 0.0
2014-Jul-22 23:34N 51°27' E 003°40'0 0.0
2014-Jul-22 22:33N 51°27' E 003°40'0 0.0
2014-Jul-22 21:33N 51°27' E 003°40'0 0.0
2014-Jul-22 20:34N 51°27' E 003°40'0 0.1
2014-Jul-22 19:34N 51°27' E 003°41'0 0.1
2014-Jul-22 18:34N 51°27' E 003°41'0 0.0
2014-Jul-22 17:34N 51°27' E 003°40'0 0.0
2014-Jul-22 16:33N 51°27' E 003°40'0 0.0
2014-Jul-22 15:33N 51°27' E 003°40'0 0.0
2014-Jul-22 14:33N 51°27' E 003°40'0 0.0
2014-Jul-22 13:33N 51°27' E 003°40'0 0.0
2014-Jul-22 12:34N 51°27' E 003°40'0 0.0
2014-Jul-22 11:33N 51°27' E 003°40'0 0.1
2014-Jul-22 10:34N 51°27' E 003°40'0 0.1
2014-Jul-22 09:34N 51°27' E 003°40'0 0.1
2014-Jul-22 08:33N 51°27' E 003°40'0 0.1
2014-Jul-22 07:34N 51°27' E 003°40'0 0.1
2014-Jul-22 06:34N 51°27' E 003°40'0 0.1
2014-Jul-22 05:33N 51°28' E 003°40'0 0.1
2014-Jul-22 04:34N 51°28' E 003°40'0 0.1
2014-Jul-22 03:34N 51°27' E 003°40'0 0.0
2014-Jul-22 02:34N 51°27' E 003°40'0 0.0
2014-Jul-22 01:33N 51°27' E 003°40'0 0.0
2014-Jul-22 00:34N 51°27' E 003°40'0 0.1
2014-Jul-21 23:33N 51°27' E 003°41'0 0.1
2014-Jul-21 22:33N 51°27' E 003°41'0 0.0
2014-Jul-21 21:34N 51°27' E 003°40'0 0.1
2014-Jul-21 20:34N 51°27' E 003°40'0 0.2
2014-Jul-21 20:18N 51°27' E 003°41'0 0.1
2014-Jul-21 19:33N 51°27' E 003°41'0 0.1
2014-Jul-21 18:33N 51°27' E 003°40'0 0.0
2014-Jul-21 17:33N 51°28' E 003°40'0 0.0
2014-Jul-21 16:33N 51°28' E 003°40'0 0.1
2014-Jul-21 15:33N 51°27' E 003°40'0 0.0
2014-Jul-21 14:34N 51°27' E 003°40'0 0.1
2014-Jul-21 13:34N 51°27' E 003°40'0 0.0
2014-Jul-21 12:34N 51°27' E 003°40'0 0.0
2014-Jul-21 11:33N 51°27' E 003°40'0 0.0
2014-Jul-21 10:33N 51°27' E 003°40'0 0.0
2014-Jul-21 09:33N 51°27' E 003°40'0 0.1
2014-Jul-21 08:33N 51°27' E 003°41'0 0.1
2014-Jul-21 07:33N 51°27' E 003°40'0 0.1
2014-Jul-21 06:33N 51°27' E 003°40'0 0.3
2014-Jul-21 05:34N 51°28' E 003°40'0 0.0
2014-Jul-21 04:33N 51°28' E 003°40'1 1.5
2014-Jul-21 03:33N 51°29' E 003°42'1 1.4
2014-Jul-21 02:34N 51°27' E 003°42'1 0.8
2014-Jul-21 01:34N 51°27' E 003°43'0 0.0
2014-Jul-21 00:33N 51°27' E 003°43'0 0.0
2014-Jul-20 23:33N 51°27' E 003°43'0 0.0
2014-Jul-20 22:33N 51°27' E 003°43'0 0.0
2014-Jul-20 21:33N 51°27' E 003°43'0 0.0
2014-Jul-20 20:33N 51°27' E 003°43'0 0.0
2014-Jul-20 19:34N 51°27' E 003°43'0 0.0
2014-Jul-20 18:33N 51°27' E 003°43'  

Dump ship's entire track history